Flight Track Log - Related Links

Times and Time Zones

All times are in EDT time to prevent confusion due to time zone crossing. See the GLA61C flight status page for this flight to view local times or setup timezone preferences in your user account.

Time Position Orientation Groundspeed Altitude Reporting Facility
EDT Latitude Longitude Course Direction KTS MPH feet Rate Location/Type
Thu 07:55:35 37.3481 -108.5878 48° Northeast 171 197 8,400  Level Denver Center
Thu 07:56:35 37.3900 -108.5589 29° Northeast 175 201 9,900 1,700 Climbing Denver Center
Thu 07:57:35 37.4297 -108.5222 36° Northeast 180 207 11,800 1,750 Climbing Denver Center
Thu 07:58:00 37.5955 -108.2166 48° Northeast  Level FlightAware Approximate
Thu 07:58:35 37.4586 -108.4689 56° Northeast 190 219 13,400  Level Denver Center
Thu 07:59:00 37.6443 -108.1492 48° Northeast  Level FlightAware Approximate
Thu 07:59:38 37.4956 -108.4047 54° Northeast 198 228 15,100  Level Denver Center
Thu 08:00:00 37.6931 -108.0817 48° Northeast  Level FlightAware Approximate
Thu 08:00:50 37.5333 -108.3547 46° Northeast 204 235 16,300  Level Denver Center
Thu 08:01:00 37.7419 -108.0141 48° Northeast  Level FlightAware Approximate
Thu 08:01:50 37.5836 -108.2808 49° Northeast 215 247 17,500  Level Denver Center
Thu 08:02:51 37.6217 -108.2217 51° Northeast 224 258 18,100 793 Climbing Denver Center
Thu 08:03:51 37.6622 -108.1628 49° Northeast 229 264 19,100 1,000 Climbing Denver Center
Thu 08:04:51 37.7111 -108.0964 47° Northeast 230 265 20,100 893 Climbing Denver Center
Thu 08:05:52 37.7500 -108.0314 53° Northeast 237 273 20,900 843 Climbing Denver Center
Thu 08:06:52 37.7914 -107.9714 49° Northeast 238 274 21,800 744 Climbing Denver Center
Thu 08:07:53 37.8350 -107.9100 48° Northeast 242 278 22,400 744 Climbing Denver Center
Thu 08:08:53 37.8833 -107.8372 50° Northeast 243 280 23,300 850 Climbing Denver Center
Thu 08:09:53 37.9258 -107.7786 47° Northeast 238 274 24,100 744 Climbing Denver Center
Thu 08:10:54 37.9683 -107.7206 47° Northeast 235 270 24,800 446 Climbing Denver Center
Thu 08:11:54 38.0175 -107.6475 49° Northeast 241 277 25,000 99 Climbing Denver Center
Thu 08:12:55 38.0658 -107.5889 44° Northeast 248 285 25,000  Level Denver Center
Thu 08:13:55 38.1156 -107.5161 49° Northeast 260 299 25,000  Level Denver Center
Thu 08:14:56 38.1547 -107.4594 49° Northeast 266 306 25,000  Level Denver Center
Thu 08:15:56 38.2083 -107.3808 49° Northeast 264 304 25,000 50 Level Denver Center
Thu 08:16:57 38.2636 -107.3050 47° Northeast 262 302 25,100 50 Climbing Denver Center
Thu 08:17:57 38.3083 -107.2369 50° Northeast 262 302 25,100  Level Denver Center
Thu 08:18:58 38.3544 -107.1731 47° Northeast 261 300 25,100 -49 Level Denver Center
Thu 08:19:59 38.4031 -107.1067 47° Northeast 257 296 25,000 -45 Descending Denver Center
Thu 08:21:11 38.4411 -107.0289 58° Northeast 263 303 25,000  Level Denver Center
Thu 08:22:12 38.4819 -106.9289 62° Northeast 266 306 25,000  Level Denver Center
Thu 08:23:13 38.5225 -106.8583 54° Northeast 250 288 25,000  Level Denver Center
Thu 08:24:13 38.5586 -106.7786 60° Northeast 256 295 25,000  Level Denver Center
Thu 08:25:14 38.5875 -106.6914 67° East 264 304 25,000  Level Denver Center
Thu 08:26:15 38.6164 -106.6053 67° East 265 305 25,000  Level Denver Center
Thu 08:27:15 38.6436 -106.5164 69° East 267 307 25,000 50 Level Denver Center
Thu 08:28:16 38.6747 -106.4303 65° Northeast 267 307 25,100  Climbing Denver Center
Thu 08:29:17 38.7114 -106.3278 65° Northeast 265 305 25,000 -446 Descending Denver Center
Thu 08:30:17 38.7461 -106.2461 61° Northeast 262 302 24,200 -942 Descending Denver Center
Thu 08:31:18 38.7800 -106.1697 60° Northeast 261 300 23,100 -984 Descending Denver Center
Thu 08:32:19 38.8186 -106.0867 59° Northeast 267 307 22,200 -1,180 Descending Denver Center
Thu 08:33:20 38.8539 -105.9989 63° Northeast 270 311 20,700 -1,339 Descending Denver Center
Thu 08:34:20 38.8931 -105.9117 60° Northeast 277 319 19,500 -1,140 Descending Denver Center
Thu 08:35:21 38.9364 -105.8300 56° Northeast 276 318 18,400 -787 Descending Denver Center
Thu 08:36:22 38.9836 -105.7519 52° Northeast 274 315 17,900 -443 Descending Denver Center
Thu 08:37:23 39.0308 -105.6744 52° Northeast 273 314 17,500 -738 Descending Denver Center
Thu 08:38:24 39.0786 -105.5972 51° Northeast 273 314 16,400 -738 Descending Denver Center
Thu 08:39:25 39.1261 -105.5186 52° Northeast 275 316 16,000 -246 Descending Denver Center
Thu 08:40:26 39.1808 -105.4361 49° Northeast 278 320 15,900 -492 Descending Denver Center
Thu 08:41:27 39.2300 -105.3619 49° Northeast 273 314 15,000 -492 Descending Denver Center
Thu 08:42:28 39.2786 -105.2839 51° Northeast 279 321 14,900 -393 Descending Denver Center
Thu 08:43:29 39.3086 -105.2092 63° Northeast 283 326 14,200 -934 Descending Denver Center
Thu 08:44:30 39.3214 -105.0942 82° East 267 307 13,000 -590 Descending Denver Center
Thu 08:45:31 39.3358 -105.0044 78° East 259 298 13,000  Level Denver Center
Thu 08:46:32 39.3481 -104.9147 80° East 255 293 13,000  Level Denver Center
Thu 08:47:33 39.3658 -104.8194 76° East 256 295 13,000  Level Denver Center
Thu 08:48:34 39.4272 -104.7853 23° Northeast 241 277 13,000 -492 Level Denver Center
Thu 08:49:35 39.4886 -104.7569 20° North 237 273 12,000 -1,180 Descending Denver Center
Thu 08:50:36 39.5489 -104.7311 18° North 231 266 10,600 -1,033 Descending Denver Center
Thu 08:51:37 39.5994 -104.7117 17° North 227 261 9,900 -787 Descending Denver Center
Thu 08:52:38 39.6722 -104.6842 16° North 223 257 9,000 -1,082 Descending Denver Center
Thu 08:53:39 39.7378 -104.6642 13° North 240 276 7,700 -1,279 Descending Denver Center
Thu 08:54:40 39.7908 -104.6608 North 184 212 6,400 -1,180 Descending Denver Center
Thu 08:55:41 39.8350 -104.6606 360° North 150 173 5,300 -1,082 Descending Denver Center
Thu 08:57:00 39.8500 -104.6667 346° North  Level FlightAware Approximate
Thu 09:04:00 39.8617 -104.6732 346° North  Level Estimated
Thu 09:05:00 39.8617 -104.6732 346° North  Level Estimated
Thu 09:06:00 39.8617 -104.6732 346° North  Level Estimated

Login

Don't have an account? Register now (free) for customized features, flight alerts, and more!